Santa Rita Foothills, Arizona
Current Conditions -  °F | °C
As of 10:53 AM on Tuesday 21 Oct 2014 (Local Time) from KTUS Reporting Station
Clear Clear  
Wind Chill: 78°   Ceiling: Unl
Heat Index: 78°   Visibility: 10mi
Dew Point: 48°   Wind: 8mph
Humidity: 35%   Direction: 100°E
Pressure: 29.98"   Gusts: NA
Location:  31.9353°N, 110.697°W
Report Text: KTUS 211753Z 10007KT 10SM CLR 26/09 A2998 RMK AO2 SLP111 T02560089 10256 20167 58002
Loading
Personal Weather Stations






























Interactive Weather Map
Tropical Storm Tracking
New forecast layout! Learn more

10-Day Weather Forecast

Advertisements
Track Severe Weather on mobile